QFA6004 YSSY-YMML
Flight info
| Callsign | QFA6004 |
|---|---|
| Flight time | 1h 4m |
| Altitude | 40000 |
| Route | WOL H65 LEECE Q29 ML |
| Aircraft | B789/H-SDE1E2E3FGHIJ2J3J4J5M1RWXY/LB1D1 |
Departure
| Time | 2026-05-04 12:47 |
|---|---|
| Airport | Sydney Kingsford Smith International Airport (YSSY) |
Arrival
| Time | 2026-05-04 13:52 |
|---|---|
| Airport | Melbourne Airport (YMML) |
| Time | Latitude | Longitude | Altitude | Speed | Heading |
|---|---|---|---|---|---|
| 2026-05-04 12:07 | -33.93261 | 151.17683 | 34 ft | 0 kts | 85° |
| 2026-05-04 12:32 | -33.93262 | 151.17674 | 36 ft | 4 kts | 84° |
| 2026-05-04 12:33 | -33.93265 | 151.17642 | 36 ft | 4 kts | 83° |
| 2026-05-04 12:33 | -33.93268 | 151.17615 | 35 ft | 4 kts | 87° |
| 2026-05-04 12:33 | -33.93264 | 151.17584 | 34 ft | 4 kts | 121° |
| 2026-05-04 12:33 | -33.93246 | 151.17562 | 34 ft | 4 kts | 151° |
| 2026-05-04 12:34 | -33.93221 | 151.17550 | 35 ft | 4 kts | 167° |
| 2026-05-04 12:34 | -33.93216 | 151.17549 | 34 ft | 9 kts | 168° |
| 2026-05-04 12:36 | -33.93221 | 151.17550 | 35 ft | 4 kts | 168° |
| 2026-05-04 12:36 | -33.93287 | 151.17566 | 35 ft | 15 kts | 168° |
| 2026-05-04 12:36 | -33.93422 | 151.17593 | 35 ft | 22 kts | 184° |
| 2026-05-04 12:37 | -33.93571 | 151.17606 | 35 ft | 21 kts | 169° |
| 2026-05-04 12:37 | -33.93703 | 151.17669 | 35 ft | 21 kts | 154° |
| 2026-05-04 12:37 | -33.93838 | 151.17728 | 35 ft | 21 kts | 142° |
| 2026-05-04 12:37 | -33.93967 | 151.17804 | 34 ft | 21 kts | 165° |
| 2026-05-04 12:38 | -33.94117 | 151.17840 | 35 ft | 22 kts | 171° |
| 2026-05-04 12:38 | -33.94269 | 151.17874 | 35 ft | 22 kts | 168° |
| 2026-05-04 12:38 | -33.94425 | 151.17910 | 35 ft | 23 kts | 179° |
| 2026-05-04 12:38 | -33.94575 | 151.17895 | 35 ft | 22 kts | 168° |
| 2026-05-04 12:39 | -33.94726 | 151.17933 | 35 ft | 22 kts | 168° |
| 2026-05-04 12:39 | -33.94880 | 151.17973 | 35 ft | 23 kts | 168° |
| 2026-05-04 12:39 | -33.95036 | 151.18013 | 36 ft | 21 kts | 167° |
| 2026-05-04 12:39 | -33.95099 | 151.18105 | 36 ft | 15 kts | 81° |
| 2026-05-04 12:40 | -33.95077 | 151.18231 | 36 ft | 16 kts | 78° |
| 2026-05-04 12:40 | -33.95053 | 151.18368 | 36 ft | 17 kts | 78° |
| 2026-05-04 12:40 | -33.95065 | 151.18498 | 36 ft | 15 kts | 139° |
| 2026-05-04 12:40 | -33.95150 | 151.18585 | 36 ft | 17 kts | 139° |
| 2026-05-04 12:41 | -33.95242 | 151.18681 | 35 ft | 18 kts | 142° |
| 2026-05-04 12:41 | -33.95359 | 151.18732 | 35 ft | 18 kts | 168° |
| 2026-05-04 12:41 | -33.95489 | 151.18764 | 35 ft | 20 kts | 168° |
| 2026-05-04 12:41 | -33.95631 | 151.18800 | 35 ft | 21 kts | 168° |
| 2026-05-04 12:42 | -33.95778 | 151.18838 | 35 ft | 22 kts | 168° |
| 2026-05-04 12:42 | -33.95902 | 151.18870 | 36 ft | 17 kts | 167° |
| 2026-05-04 12:42 | -33.96019 | 151.18901 | 36 ft | 18 kts | 167° |
| 2026-05-04 12:42 | -33.96144 | 151.18934 | 35 ft | 19 kts | 167° |
| 2026-05-04 12:43 | -33.96275 | 151.18969 | 36 ft | 20 kts | 168° |
| 2026-05-04 12:43 | -33.96414 | 151.19005 | 35 ft | 22 kts | 168° |
| 2026-05-04 12:43 | -33.96575 | 151.19046 | 35 ft | 25 kts | 168° |
| 2026-05-04 12:43 | -33.96754 | 151.19070 | 35 ft | 26 kts | 182° |
| 2026-05-04 12:44 | -33.96935 | 151.19090 | 36 ft | 26 kts | 169° |
| 2026-05-04 12:44 | -33.97059 | 151.19124 | 36 ft | 6 kts | 166° |
| 2026-05-04 12:44 | -33.97101 | 151.19142 | 36 ft | 7 kts | 149° |
| 2026-05-04 12:44 | -33.97123 | 151.19189 | 35 ft | 7 kts | 96° |
| 2026-05-04 12:45 | -33.97119 | 151.19238 | 35 ft | 0 kts | 78° |
| 2026-05-04 12:45 | -33.97116 | 151.19254 | 34 ft | 4 kts | 77° |
| 2026-05-04 12:45 | -33.97105 | 151.19312 | 32 ft | 11 kts | 76° |
| 2026-05-04 12:45 | -33.97066 | 151.19372 | 31 ft | 8 kts | 4° |
| 2026-05-04 12:46 | -33.97049 | 151.19369 | 30 ft | 0 kts | 348° |
| 2026-05-04 12:46 | -33.97048 | 151.19368 | 30 ft | 2 kts | 348° |
| 2026-05-04 12:46 | -33.96972 | 151.19349 | 30 ft | 27 kts | 348° |
| 2026-05-04 12:47 | -33.96603 | 151.19253 | 29 ft | 84 kts | 348° |
| 2026-05-04 12:47 | -33.95846 | 151.19056 | 35 ft | 137 kts | 347° |
| 2026-05-04 12:47 | -33.94850 | 151.18810 | 427 ft | 139 kts | 347° |
| 2026-05-04 12:47 | -33.93816 | 151.18686 | 833 ft | 173 kts | 7° |
| 2026-05-04 12:48 | -33.92835 | 151.19665 | 1616 ft | 197 kts | 56° |
| 2026-05-04 12:48 | -33.92637 | 151.21254 | 2822 ft | 199 kts | 101° |
| 2026-05-04 12:48 | -33.93226 | 151.22799 | 3725 ft | 206 kts | 121° |
| 2026-05-04 12:48 | -33.93963 | 151.24313 | 4613 ft | 214 kts | 116° |
| 2026-05-04 12:49 | -33.94166 | 151.26121 | 5281 ft | 231 kts | 82° |
| 2026-05-04 12:49 | -33.94025 | 151.28162 | 5959 ft | 261 kts | 82° |
| 2026-05-04 12:49 | -33.93902 | 151.30458 | 6974 ft | 288 kts | 83° |
| 2026-05-04 12:49 | -33.93814 | 151.32895 | 8414 ft | 292 kts | 83° |
| 2026-05-04 12:50 | -33.93722 | 151.35361 | 9895 ft | 298 kts | 82° |
| 2026-05-04 12:50 | -33.93606 | 151.37923 | 10885 ft | 319 kts | 82° |
| 2026-05-04 12:50 | -33.93477 | 151.40699 | 11605 ft | 346 kts | 82° |
| 2026-05-04 12:50 | -33.93349 | 151.43706 | 12311 ft | 370 kts | 83° |
| 2026-05-04 12:51 | -33.93231 | 151.46823 | 13498 ft | 375 kts | 84° |
| 2026-05-04 12:51 | -33.93606 | 151.49991 | 14428 ft | 393 kts | 105° |
| 2026-05-04 12:51 | -33.94856 | 151.52957 | 15354 ft | 404 kts | 126° |
| 2026-05-04 12:51 | -33.96883 | 151.55331 | 16265 ft | 412 kts | 147° |
| 2026-05-04 12:52 | -33.99474 | 151.56804 | 17155 ft | 414 kts | 168° |
| 2026-05-04 12:52 | -34.02315 | 151.57200 | 18086 ft | 412 kts | 188° |
| 2026-05-04 12:52 | -34.05057 | 151.56524 | 18878 ft | 406 kts | 207° |
| 2026-05-04 12:52 | -34.07466 | 151.54859 | 19692 ft | 396 kts | 226° |
| 2026-05-04 12:53 | -34.09318 | 151.52459 | 20461 ft | 390 kts | 240° |
| 2026-05-04 12:53 | -34.10853 | 151.49756 | 21241 ft | 391 kts | 244° |
| 2026-05-04 12:53 | -34.12345 | 151.46993 | 22014 ft | 396 kts | 242° |
| 2026-05-04 12:53 | -34.14009 | 151.44299 | 22765 ft | 404 kts | 237° |
| 2026-05-04 12:54 | -34.15822 | 151.41675 | 23469 ft | 409 kts | 237° |
| 2026-05-04 12:54 | -34.17609 | 151.38986 | 24072 ft | 411 kts | 239° |
| 2026-05-04 12:54 | -34.19335 | 151.36228 | 24649 ft | 412 kts | 240° |
| 2026-05-04 12:54 | -34.21079 | 151.33464 | 25208 ft | 416 kts | 239° |
| 2026-05-04 12:55 | -34.22865 | 151.30714 | 25812 ft | 416 kts | 239° |
| 2026-05-04 12:55 | -34.24657 | 151.27953 | 26305 ft | 419 kts | 239° |
| 2026-05-04 12:55 | -34.26445 | 151.25156 | 26797 ft | 421 kts | 240° |
| 2026-05-04 12:55 | -34.28241 | 151.22340 | 27279 ft | 424 kts | 240° |
| 2026-05-04 12:56 | -34.30055 | 151.19511 | 27751 ft | 427 kts | 239° |
| 2026-05-04 12:56 | -34.31884 | 151.16663 | 28210 ft | 430 kts | 240° |
| 2026-05-04 12:56 | -34.33721 | 151.13793 | 28669 ft | 432 kts | 240° |
| 2026-05-04 12:56 | -34.35566 | 151.10900 | 29078 ft | 436 kts | 240° |
| 2026-05-04 12:57 | -34.37426 | 151.07987 | 29525 ft | 439 kts | 240° |
| 2026-05-04 12:57 | -34.39299 | 151.05056 | 29941 ft | 441 kts | 240° |
| 2026-05-04 12:57 | -34.41179 | 151.02109 | 30413 ft | 442 kts | 240° |
| 2026-05-04 12:57 | -34.43057 | 150.99161 | 30807 ft | 443 kts | 240° |
| 2026-05-04 12:58 | -34.44940 | 150.96200 | 31162 ft | 444 kts | 240° |
| 2026-05-04 12:58 | -34.46829 | 150.93230 | 31517 ft | 446 kts | 240° |
| 2026-05-04 12:58 | -34.48725 | 150.90248 | 31870 ft | 447 kts | 240° |
| 2026-05-04 12:58 | -34.50626 | 150.87255 | 32210 ft | 449 kts | 240° |
| 2026-05-04 12:59 | -34.52536 | 150.84243 | 32492 ft | 451 kts | 240° |
| 2026-05-04 12:59 | -34.54451 | 150.81222 | 32819 ft | 453 kts | 240° |
| 2026-05-04 12:59 | -34.56351 | 150.78180 | 33101 ft | 452 kts | 242° |
| 2026-05-04 12:59 | -34.58205 | 150.75081 | 33390 ft | 454 kts | 241° |
| 2026-05-04 13:00 | -34.60083 | 150.71999 | 33716 ft | 455 kts | 241° |
| 2026-05-04 13:00 | -34.61961 | 150.68902 | 33994 ft | 456 kts | 242° |
| 2026-05-04 13:00 | -34.63829 | 150.65788 | 34234 ft | 457 kts | 242° |
| 2026-05-04 13:00 | -34.65704 | 150.62661 | 34489 ft | 458 kts | 242° |
| 2026-05-04 13:01 | -34.67584 | 150.59542 | 34812 ft | 457 kts | 241° |
| 2026-05-04 13:01 | -34.69459 | 150.56433 | 35073 ft | 456 kts | 242° |
| 2026-05-04 13:01 | -34.71327 | 150.53317 | 35383 ft | 455 kts | 242° |
| 2026-05-04 13:01 | -34.73189 | 150.50207 | 35697 ft | 454 kts | 242° |
| 2026-05-04 13:02 | -34.75047 | 150.47107 | 35987 ft | 454 kts | 242° |
| 2026-05-04 13:02 | -34.76908 | 150.44002 | 36259 ft | 454 kts | 242° |
| 2026-05-04 13:02 | -34.78766 | 150.40894 | 36512 ft | 454 kts | 242° |
| 2026-05-04 13:02 | -34.80599 | 150.37829 | 36771 ft | 454 kts | 242° |
| 2026-05-04 13:03 | -34.82453 | 150.34724 | 37055 ft | 454 kts | 242° |
| 2026-05-04 13:03 | -34.84306 | 150.31617 | 37341 ft | 453 kts | 242° |
| 2026-05-04 13:03 | -34.86155 | 150.28517 | 37606 ft | 453 kts | 242° |
| 2026-05-04 13:03 | -34.88002 | 150.25416 | 37887 ft | 452 kts | 242° |
| 2026-05-04 13:04 | -34.89847 | 150.22314 | 38180 ft | 451 kts | 242° |
| 2026-05-04 13:04 | -34.91684 | 150.19226 | 38455 ft | 451 kts | 242° |
| 2026-05-04 13:04 | -34.93525 | 150.16126 | 38715 ft | 450 kts | 242° |
| 2026-05-04 13:04 | -34.95362 | 150.13031 | 38862 ft | 452 kts | 242° |
| 2026-05-04 13:05 | -34.97203 | 150.09926 | 39086 ft | 452 kts | 241° |
| 2026-05-04 13:05 | -34.99047 | 150.06814 | 39202 ft | 454 kts | 241° |
| 2026-05-04 13:05 | -35.00897 | 150.03690 | 39391 ft | 454 kts | 241° |
| 2026-05-04 13:05 | -35.02745 | 150.00565 | 39576 ft | 454 kts | 241° |
| 2026-05-04 13:06 | -35.04590 | 149.97443 | 39751 ft | 454 kts | 241° |
| 2026-05-04 13:06 | -35.06439 | 149.94311 | 39910 ft | 455 kts | 241° |
| 2026-05-04 13:06 | -35.08289 | 149.91174 | 40030 ft | 456 kts | 241° |
| 2026-05-04 13:07 | -35.12029 | 149.84822 | 40066 ft | 465 kts | 241° |
| 2026-05-04 13:07 | -35.15829 | 149.78361 | 40084 ft | 472 kts | 241° |
| 2026-05-04 13:08 | -35.19682 | 149.71795 | 40109 ft | 478 kts | 241° |
| 2026-05-04 13:08 | -35.23571 | 149.65159 | 40121 ft | 480 kts | 241° |
| 2026-05-04 13:09 | -35.27414 | 149.58588 | 40135 ft | 477 kts | 241° |
| 2026-05-04 13:09 | -35.31270 | 149.51978 | 40111 ft | 477 kts | 241° |
| 2026-05-04 13:10 | -35.35153 | 149.45315 | 40113 ft | 478 kts | 241° |
| 2026-05-04 13:10 | -35.38982 | 149.38727 | 40111 ft | 478 kts | 241° |
| 2026-05-04 13:11 | -35.42835 | 149.32088 | 40102 ft | 478 kts | 241° |
| 2026-05-04 13:11 | -35.46685 | 149.25440 | 40107 ft | 478 kts | 241° |
| 2026-05-04 13:12 | -35.50528 | 149.18793 | 40104 ft | 477 kts | 241° |
| 2026-05-04 13:12 | -35.54355 | 149.12160 | 40111 ft | 476 kts | 241° |
| 2026-05-04 13:13 | -35.58185 | 149.05507 | 40113 ft | 478 kts | 242° |
| 2026-05-04 13:13 | -35.62016 | 148.98847 | 40110 ft | 477 kts | 241° |
| 2026-05-04 13:14 | -35.65845 | 148.92168 | 40112 ft | 479 kts | 241° |
| 2026-05-04 13:14 | -35.69657 | 148.85513 | 40111 ft | 480 kts | 241° |
| 2026-05-04 13:15 | -35.73501 | 148.78786 | 40102 ft | 480 kts | 242° |
| 2026-05-04 13:15 | -35.77331 | 148.72071 | 40089 ft | 478 kts | 241° |
| 2026-05-04 13:16 | -35.81144 | 148.65373 | 40095 ft | 477 kts | 241° |
| 2026-05-04 13:16 | -35.84954 | 148.58666 | 40089 ft | 478 kts | 241° |
| 2026-05-04 13:17 | -35.88767 | 148.51942 | 40100 ft | 479 kts | 242° |
| 2026-05-04 13:17 | -35.91923 | 148.46341 | 40084 ft | 478 kts | 241° |
| 2026-05-04 13:18 | -35.95733 | 148.39573 | 40085 ft | 481 kts | 241° |
| 2026-05-04 13:18 | -35.99547 | 148.32784 | 40118 ft | 481 kts | 241° |
| 2026-05-04 13:19 | -36.03350 | 148.26000 | 40099 ft | 479 kts | 241° |
| 2026-05-04 13:19 | -36.07144 | 148.19217 | 40098 ft | 480 kts | 241° |
| 2026-05-04 13:20 | -36.10962 | 148.12380 | 40100 ft | 486 kts | 241° |
| 2026-05-04 13:20 | -36.14808 | 148.05503 | 40104 ft | 486 kts | 241° |
| 2026-05-04 13:21 | -36.18646 | 147.98638 | 40098 ft | 484 kts | 241° |
| 2026-05-04 13:21 | -36.22468 | 147.91779 | 40107 ft | 484 kts | 241° |
| 2026-05-04 13:22 | -36.26278 | 147.84936 | 40101 ft | 481 kts | 241° |
| 2026-05-04 13:22 | -36.30075 | 147.78095 | 40091 ft | 482 kts | 241° |
| 2026-05-04 13:23 | -36.33866 | 147.71256 | 40089 ft | 481 kts | 241° |
| 2026-05-04 13:23 | -36.37650 | 147.64391 | 40094 ft | 482 kts | 241° |
| 2026-05-04 13:24 | -36.41433 | 147.57525 | 40086 ft | 482 kts | 241° |
| 2026-05-04 13:24 | -36.45204 | 147.50662 | 40079 ft | 480 kts | 241° |
| 2026-05-04 13:25 | -36.50819 | 147.40419 | 40080 ft | 480 kts | 241° |
| 2026-05-04 13:25 | -36.54573 | 147.33555 | 40079 ft | 480 kts | 242° |
| 2026-05-04 13:26 | -36.58323 | 147.26681 | 40077 ft | 481 kts | 242° |
| 2026-05-04 13:26 | -36.62071 | 147.19800 | 40063 ft | 480 kts | 241° |
| 2026-05-04 13:27 | -36.65813 | 147.12914 | 40067 ft | 480 kts | 242° |
| 2026-05-04 13:27 | -36.69551 | 147.06022 | 40068 ft | 481 kts | 242° |
| 2026-05-04 13:28 | -36.73266 | 146.99168 | 39690 ft | 470 kts | 242° |
| 2026-05-04 13:28 | -36.75090 | 146.95789 | 39027 ft | 470 kts | 242° |
| 2026-05-04 13:28 | -36.76909 | 146.92410 | 38306 ft | 469 kts | 242° |
| 2026-05-04 13:29 | -36.78723 | 146.89051 | 37646 ft | 465 kts | 242° |
| 2026-05-04 13:29 | -36.80519 | 146.85726 | 36995 ft | 461 kts | 242° |
| 2026-05-04 13:29 | -36.82304 | 146.82407 | 36273 ft | 459 kts | 242° |
| 2026-05-04 13:29 | -36.84079 | 146.79100 | 35581 ft | 457 kts | 242° |
| 2026-05-04 13:30 | -36.85847 | 146.75811 | 34898 ft | 455 kts | 243° |
| 2026-05-04 13:30 | -36.87605 | 146.72542 | 34243 ft | 452 kts | 243° |
| 2026-05-04 13:30 | -36.89346 | 146.69293 | 33546 ft | 448 kts | 243° |
| 2026-05-04 13:30 | -36.91070 | 146.66075 | 32888 ft | 443 kts | 243° |
| 2026-05-04 13:31 | -36.92774 | 146.62889 | 32254 ft | 438 kts | 244° |
| 2026-05-04 13:31 | -36.94461 | 146.59736 | 31622 ft | 434 kts | 244° |
| 2026-05-04 13:31 | -36.96153 | 146.56560 | 30394 ft | 444 kts | 244° |
| 2026-05-04 13:31 | -36.97863 | 146.53351 | 29662 ft | 441 kts | 243° |
| 2026-05-04 13:32 | -36.99551 | 146.50199 | 29049 ft | 433 kts | 243° |
| 2026-05-04 13:32 | -37.01209 | 146.47091 | 28434 ft | 425 kts | 243° |
| 2026-05-04 13:32 | -37.02832 | 146.44034 | 27833 ft | 419 kts | 243° |
| 2026-05-04 13:32 | -37.04432 | 146.41022 | 27253 ft | 412 kts | 242° |
| 2026-05-04 13:33 | -37.06005 | 146.38059 | 26685 ft | 406 kts | 242° |
| 2026-05-04 13:33 | -37.07543 | 146.35164 | 26102 ft | 402 kts | 241° |
| 2026-05-04 13:33 | -37.09073 | 146.32265 | 25545 ft | 396 kts | 241° |
| 2026-05-04 13:33 | -37.10588 | 146.29352 | 24983 ft | 391 kts | 240° |
| 2026-05-04 13:34 | -37.12040 | 146.26556 | 24452 ft | 386 kts | 240° |
| 2026-05-04 13:34 | -37.13500 | 146.23761 | 23922 ft | 381 kts | 240° |
| 2026-05-04 13:34 | -37.14941 | 146.21005 | 23344 ft | 376 kts | 239° |
| 2026-05-04 13:34 | -37.16358 | 146.18286 | 22827 ft | 369 kts | 239° |
| 2026-05-04 13:35 | -37.17747 | 146.15614 | 22313 ft | 362 kts | 240° |
| 2026-05-04 13:35 | -37.20461 | 146.10390 | 21333 ft | 361 kts | 240° |
| 2026-05-04 13:35 | -37.21862 | 146.07685 | 20889 ft | 375 kts | 240° |
| 2026-05-04 13:36 | -37.23284 | 146.04948 | 20921 ft | 378 kts | 240° |
| 2026-05-04 13:36 | -37.24728 | 146.02169 | 20809 ft | 377 kts | 239° |
| 2026-05-04 13:36 | -37.26145 | 145.99435 | 20217 ft | 372 kts | 239° |
| 2026-05-04 13:36 | -37.27552 | 145.96712 | 19619 ft | 372 kts | 239° |
| 2026-05-04 13:37 | -37.28958 | 145.93991 | 19020 ft | 371 kts | 239° |
| 2026-05-04 13:37 | -37.30353 | 145.91293 | 18435 ft | 366 kts | 240° |
| 2026-05-04 13:37 | -37.31728 | 145.88633 | 17804 ft | 360 kts | 240° |
| 2026-05-04 13:37 | -37.32626 | 145.86891 | 17429 ft | 358 kts | 240° |
| 2026-05-04 13:38 | -37.34432 | 145.83384 | 16664 ft | 357 kts | 240° |
| 2026-05-04 13:38 | -37.35769 | 145.80791 | 16099 ft | 350 kts | 240° |
| 2026-05-04 13:38 | -37.37089 | 145.78226 | 15532 ft | 349 kts | 240° |
| 2026-05-04 13:38 | -37.38401 | 145.75673 | 14981 ft | 347 kts | 240° |
| 2026-05-04 13:39 | -37.39704 | 145.73138 | 14625 ft | 341 kts | 240° |
| 2026-05-04 13:39 | -37.40993 | 145.70666 | 14622 ft | 340 kts | 239° |
| 2026-05-04 13:39 | -37.42349 | 145.68185 | 14628 ft | 345 kts | 238° |
| 2026-05-04 13:39 | -37.43719 | 145.65706 | 14635 ft | 347 kts | 238° |
| 2026-05-04 13:40 | -37.45065 | 145.63234 | 14635 ft | 334 kts | 239° |
| 2026-05-04 13:40 | -37.46372 | 145.60809 | 14631 ft | 341 kts | 239° |
| 2026-05-04 13:40 | -37.47718 | 145.58317 | 14632 ft | 345 kts | 239° |
| 2026-05-04 13:40 | -37.49076 | 145.55819 | 14475 ft | 345 kts | 238° |
| 2026-05-04 13:41 | -37.50415 | 145.53357 | 13946 ft | 338 kts | 239° |
| 2026-05-04 13:41 | -37.51731 | 145.50918 | 13383 ft | 336 kts | 238° |
| 2026-05-04 13:41 | -37.53042 | 145.48489 | 12845 ft | 335 kts | 238° |
| 2026-05-04 13:42 | -37.55634 | 145.43678 | 11861 ft | 325 kts | 239° |
| 2026-05-04 13:42 | -37.56849 | 145.41327 | 11429 ft | 321 kts | 240° |
| 2026-05-04 13:42 | -37.58040 | 145.39020 | 11013 ft | 309 kts | 240° |
| 2026-05-04 13:42 | -37.59201 | 145.36796 | 10619 ft | 297 kts | 240° |
| 2026-05-04 13:43 | -37.60319 | 145.34664 | 10223 ft | 286 kts | 239° |
| 2026-05-04 13:43 | -37.61394 | 145.32598 | 9830 ft | 277 kts | 240° |
| 2026-05-04 13:43 | -37.62433 | 145.30601 | 9461 ft | 267 kts | 240° |
| 2026-05-04 13:43 | -37.63424 | 145.28696 | 9120 ft | 256 kts | 240° |
| 2026-05-04 13:44 | -37.64390 | 145.26833 | 8780 ft | 251 kts | 240° |
| 2026-05-04 13:44 | -37.65343 | 145.24996 | 8453 ft | 249 kts | 239° |
| 2026-05-04 13:44 | -37.66237 | 145.23153 | 7929 ft | 246 kts | 247° |
| 2026-05-04 13:44 | -37.66820 | 145.21152 | 7309 ft | 240 kts | 253° |
| 2026-05-04 13:45 | -37.67333 | 145.19223 | 6683 ft | 224 kts | 251° |
| 2026-05-04 13:45 | -37.67881 | 145.17452 | 6067 ft | 211 kts | 250° |
| 2026-05-04 13:45 | -37.68427 | 145.15768 | 5482 ft | 207 kts | 250° |
| 2026-05-04 13:45 | -37.68970 | 145.14071 | 4927 ft | 212 kts | 251° |
| 2026-05-04 13:46 | -37.69519 | 145.12327 | 4454 ft | 213 kts | 251° |
| 2026-05-04 13:46 | -37.70060 | 145.10616 | 4170 ft | 207 kts | 250° |
| 2026-05-04 13:46 | -37.70581 | 145.08970 | 3988 ft | 198 kts | 250° |
| 2026-05-04 13:46 | -37.71099 | 145.07325 | 3887 ft | 204 kts | 251° |
| 2026-05-04 13:47 | -37.71625 | 145.05658 | 3762 ft | 204 kts | 251° |
| 2026-05-04 13:47 | -37.72138 | 145.04034 | 3640 ft | 199 kts | 251° |
| 2026-05-04 13:47 | -37.72651 | 145.02385 | 3535 ft | 202 kts | 253° |
| 2026-05-04 13:47 | -37.72814 | 145.00641 | 3394 ft | 199 kts | 270° |
| 2026-05-04 13:48 | -37.72862 | 144.98918 | 3260 ft | 197 kts | 267° |
| 2026-05-04 13:48 | -37.72922 | 144.97216 | 3156 ft | 186 kts | 267° |
| 2026-05-04 13:48 | -37.72967 | 144.95648 | 3010 ft | 171 kts | 268° |
| 2026-05-04 13:48 | -37.73006 | 144.94198 | 2803 ft | 162 kts | 268° |
| 2026-05-04 13:49 | -37.73046 | 144.92798 | 2455 ft | 156 kts | 268° |
| 2026-05-04 13:49 | -37.73105 | 144.91498 | 2157 ft | 140 kts | 267° |
| 2026-05-04 13:49 | -37.73154 | 144.90349 | 1878 ft | 127 kts | 270° |
| 2026-05-04 13:49 | -37.73201 | 144.89243 | 1655 ft | 126 kts | 269° |
| 2026-05-04 13:50 | -37.73246 | 144.88091 | 1403 ft | 134 kts | 272° |
| 2026-05-04 13:50 | -37.73114 | 144.86931 | 1285 ft | 134 kts | 290° |
| 2026-05-04 13:50 | -37.72682 | 144.85877 | 1202 ft | 138 kts | 308° |
| 2026-05-04 13:50 | -37.71984 | 144.85040 | 1131 ft | 135 kts | 326° |
| 2026-05-04 13:51 | -37.71110 | 144.84608 | 896 ft | 142 kts | 346° |
| 2026-05-04 13:51 | -37.70167 | 144.84398 | 675 ft | 134 kts | 351° |
| 2026-05-04 13:51 | -37.69233 | 144.84222 | 521 ft | 139 kts | 351° |
| 2026-05-04 13:51 | -37.68304 | 144.84050 | 365 ft | 128 kts | 351° |
| 2026-05-04 13:52 | -37.67180 | 144.83840 | 386 ft | 47 kts | 351° |
| 2026-05-04 13:52 | -37.66900 | 144.83883 | 392 ft | 36 kts | 19° |
| 2026-05-04 13:52 | -37.66738 | 144.83990 | 399 ft | 17 kts | 58° |
| 2026-05-04 13:53 | -37.66709 | 144.84134 | 401 ft | 17 kts | 81° |
| 2026-05-04 13:53 | -37.66691 | 144.84283 | 398 ft | 17 kts | 81° |
| 2026-05-04 13:53 | -37.66672 | 144.84435 | 403 ft | 18 kts | 81° |
| 2026-05-04 13:54 | -37.66638 | 144.84740 | 407 ft | 17 kts | 81° |
| 2026-05-04 13:54 | -37.66572 | 144.84816 | 407 ft | 11 kts | 40° |
| 2026-05-04 13:54 | -37.66526 | 144.84992 | 408 ft | 12 kts | 71° |
| 2026-05-04 13:55 | -37.66498 | 144.85093 | 406 ft | 13 kts | 79° |
| 2026-05-04 13:55 | -37.66577 | 144.85340 | 401 ft | 21 kts | 150° |
| 2026-05-04 13:55 | -37.66700 | 144.85373 | 398 ft | 13 kts | 171° |
| 2026-05-04 13:56 | -37.66763 | 144.85382 | 397 ft | 7 kts | 186° |
| 2026-05-04 13:56 | -37.66784 | 144.85361 | 393 ft | 1 kts | 246° |
| 2026-05-04 13:56 | -37.66791 | 144.85302 | 396 ft | 4 kts | 262° |
| 2026-05-04 13:57 | -37.66793 | 144.85285 | 397 ft | 1 kts | 262° |
| 2026-05-04 13:57 | -37.66793 | 144.85284 | 397 ft | 0 kts | 262° |